Aviation Digital Data Service (ADDS)

Output produced by METARs form (1217 UTC 18 November 2018)
found at http://aviationweather.gov/metar/data/
 
Forecast for: EPDA (DARTOWEK NAVAL , PL)
Text: TAF EPDA 181100Z 1812/1821 05012KT 9999 BKN037
Forecast period: 1200 to 2100 UTC 18 November 2018
Forecast type: FROM: standard forecast or significant change
Winds: from the NE (50 degrees) at 14 MPH (12 knots; 6.2 m/s)
Visibility: 6 or more miles 10+ km)
Ceiling: 3700 feet AGL
Clouds: broken clouds at 3700 feet AGL
Weather: no significant weather forecast for this period
Text: TEMPO 1812/1821 5000 RA BR BKN020
Forecast period: 1200 to 2100 UTC 18 November 2018
Forecast type: TEMPORARY: The following changes expected for less than half the time period
Visibility: 3 miles (5 km)
Ceiling: 2000 feet AGL
Clouds: broken clouds at 2000 feet AGL
Weather: RA BR  (moderate rain, mist)
Text: PROB40
Forecast period: 1200 to 2100 UTC 18 November 2018
Forecast type: TEMPORARY: The following changes expected for less than half the time period
Winds: from the NE (50 degrees) at 17 MPH (15 knots; 7.7 m/s)
gusting to 31 MPH (27 knots; 13.9 m/s)
Visibility: missing
Ceiling: unknown
Clouds: missing
Weather: no significant weather forecast for this period